createdAt,value
2017-08-25T00:00:34.966Z,56.30
2017-08-25T00:03:02.470Z,56.30
2017-08-25T00:05:30.030Z,56.30
2017-08-25T00:07:57.526Z,56.40
2017-08-25T00:10:25.018Z,56.40
2017-08-25T00:12:52.535Z,56.60
2017-08-25T00:15:20.030Z,56.60
2017-08-25T00:17:47.549Z,56.70
2017-08-25T00:20:15.042Z,56.80
2017-08-25T00:22:42.558Z,56.90
2017-08-25T00:25:10.056Z,57.20
2017-08-25T00:27:37.578Z,57.00
2017-08-25T00:30:05.080Z,56.90
2017-08-25T00:32:32.590Z,57.60
2017-08-25T00:35:00.089Z,57.00
2017-08-25T00:37:27.613Z,57.00
2017-08-25T00:39:55.106Z,57.00
2017-08-25T00:42:22.726Z,57.10
2017-08-25T00:44:50.222Z,57.10
2017-08-25T00:47:17.746Z,57.30
2017-08-25T00:49:45.246Z,57.40
2017-08-25T00:52:12.762Z,57.40
2017-08-25T00:54:40.260Z,57.40
2017-08-25T00:57:07.781Z,57.50
2017-08-25T00:59:35.278Z,57.40
2017-08-25T01:02:02.790Z,57.40
2017-08-25T01:04:30.281Z,57.40
2017-08-25T01:06:57.791Z,57.40
2017-08-25T01:09:25.286Z,57.40
2017-08-25T01:11:52.783Z,57.50
2017-08-25T01:14:20.298Z,57.60
2017-08-25T01:16:47.802Z,57.60
2017-08-25T01:19:15.457Z,57.50
2017-08-25T01:21:42.946Z,57.50
2017-08-25T01:24:10.466Z,57.60
2017-08-25T01:26:38.002Z,57.70
2017-08-25T01:29:05.514Z,57.70
2017-08-25T01:31:33.011Z,57.80
2017-08-25T01:34:00.531Z,57.80
2017-08-25T01:36:28.030Z,57.80
2017-08-25T01:38:55.542Z,57.80
2017-08-25T01:41:23.042Z,57.80
2017-08-25T01:43:50.553Z,57.90
2017-08-25T01:46:18.055Z,58.00
2017-08-25T01:48:45.575Z,58.00
2017-08-25T01:51:13.087Z,58.00
2017-08-25T01:53:40.606Z,58.10
2017-08-25T01:56:08.867Z,58.30
2017-08-25T01:58:36.395Z,58.30
2017-08-25T02:01:03.894Z,58.20
2017-08-25T02:03:32.174Z,58.40
2017-08-25T02:05:59.673Z,58.30
2017-08-25T02:08:27.217Z,58.40
2017-08-25T02:10:54.718Z,58.40
2017-08-25T02:13:22.241Z,58.40
2017-08-25T02:15:49.733Z,58.40
2017-08-25T02:18:17.230Z,58.40
2017-08-25T02:20:44.746Z,58.40
2017-08-25T02:23:12.239Z,58.50
2017-08-25T02:25:39.754Z,58.50
2017-08-25T02:28:07.255Z,58.50
2017-08-25T02:30:34.768Z,58.50
2017-08-25T02:33:02.271Z,58.50
2017-08-25T02:35:29.793Z,58.50
2017-08-25T02:37:57.286Z,58.50
2017-08-25T02:40:24.802Z,58.60
2017-08-25T02:42:52.298Z,58.90
2017-08-25T02:45:19.850Z,58.50
2017-08-25T02:47:47.361Z,58.50
2017-08-25T02:50:14.872Z,58.50
2017-08-25T02:52:42.379Z,58.40
2017-08-25T02:55:09.897Z,58.50
2017-08-25T02:57:38.167Z,58.60
2017-08-25T03:00:05.686Z,58.60
2017-08-25T03:02:33.186Z,58.60
2017-08-25T03:05:00.704Z,58.70
2017-08-25T03:07:28.210Z,58.60
2017-08-25T03:09:55.718Z,58.60
2017-08-25T03:12:23.214Z,59.20
2017-08-25T03:14:50.729Z,58.60
2017-08-25T03:17:18.253Z,58.60
2017-08-25T03:19:45.751Z,58.60
2017-08-25T03:22:13.259Z,58.70
2017-08-25T03:24:41.526Z,59.20
2017-08-25T03:27:09.042Z,58.90
2017-08-25T03:29:36.542Z,58.90
2017-08-25T03:32:04.050Z,59.00
2017-08-25T03:34:31.555Z,59.00
2017-08-25T03:36:59.062Z,58.80
2017-08-25T03:39:26.553Z,58.70
2017-08-25T03:41:54.074Z,58.80
2017-08-25T03:44:21.584Z,58.80
2017-08-25T03:46:49.102Z,58.90
2017-08-25T03:49:16.602Z,58.90
2017-08-25T03:51:44.116Z,59.00
2017-08-25T03:54:11.612Z,59.10
2017-08-25T03:56:39.127Z,59.10
2017-08-25T03:59:06.635Z,59.10
2017-08-25T04:01:34.150Z,59.00
2017-08-25T04:04:01.646Z,58.90
2017-08-25T04:06:29.157Z,58.90
2017-08-25T04:08:56.653Z,59.00
2017-08-25T04:11:24.166Z,59.00
2017-08-25T04:13:52.429Z,59.00
2017-08-25T04:16:20.076Z,58.90
2017-08-25T04:18:47.590Z,58.90
2017-08-25T04:21:15.151Z,58.90
2017-08-25T04:23:42.670Z,58.90
2017-08-25T04:26:10.175Z,58.90
2017-08-25T04:28:37.686Z,59.00
2017-08-25T04:31:05.177Z,59.20
2017-08-25T04:33:32.799Z,59.00
2017-08-25T04:36:00.298Z,59.00
2017-08-25T04:38:27.818Z,59.10
2017-08-25T04:40:55.420Z,59.10
2017-08-25T04:43:22.936Z,59.20
2017-08-25T04:45:50.431Z,59.20
2017-08-25T04:48:17.946Z,59.30
2017-08-25T04:50:45.440Z,59.40
2017-08-25T04:53:12.962Z,59.30
2017-08-25T04:55:40.459Z,59.30
2017-08-25T04:58:07.974Z,59.40
2017-08-25T05:00:35.471Z,59.50
2017-08-25T05:03:02.986Z,59.40
2017-08-25T05:05:30.486Z,59.50
2017-08-25T05:07:57.989Z,59.50
2017-08-25T05:10:25.491Z,59.70
2017-08-25T05:12:53.006Z,59.80
2017-08-25T05:15:20.512Z,59.80
2017-08-25T05:17:48.175Z,59.90
2017-08-25T05:20:15.677Z,59.80
2017-08-25T05:22:43.167Z,59.80
2017-08-25T05:25:10.683Z,60.10
2017-08-25T05:27:38.186Z,60.20
2017-08-25T05:30:05.695Z,60.30
2017-08-25T05:32:33.211Z,60.50
2017-08-25T05:35:00.733Z,60.60
2017-08-25T05:37:28.246Z,60.60
2017-08-25T05:39:55.910Z,60.80
2017-08-25T05:42:23.406Z,61.10
2017-08-25T05:44:50.928Z,61.60
2017-08-25T05:47:18.423Z,62.30
2017-08-25T05:49:45.945Z,62.50
2017-08-25T05:52:13.442Z,62.80
2017-08-25T05:54:40.966Z,62.80
2017-08-25T05:57:08.466Z,62.80
2017-08-25T05:59:35.991Z,62.50
2017-08-25T06:02:03.506Z,62.60
2017-08-25T06:04:31.035Z,62.40
2017-08-25T06:06:58.558Z,62.00
2017-08-25T06:09:26.062Z,61.90
2017-08-25T06:11:53.566Z,61.80
2017-08-25T06:14:21.079Z,61.70
2017-08-25T06:16:48.593Z,61.50
2017-08-25T06:19:16.154Z,61.90
2017-08-25T06:21:43.668Z,61.90
2017-08-25T06:24:11.167Z,62.20
2017-08-25T06:26:38.675Z,62.30
2017-08-25T06:29:06.178Z,62.00
2017-08-25T06:31:33.687Z,62.00
2017-08-25T06:34:01.178Z,61.80
2017-08-25T06:36:28.698Z,61.80
2017-08-25T06:38:56.197Z,61.70
2017-08-25T06:41:23.706Z,61.50
2017-08-25T06:43:51.207Z,61.60
2017-08-25T06:46:18.722Z,61.60
2017-08-25T06:48:46.218Z,61.60
2017-08-25T06:51:13.730Z,61.90
2017-08-25T06:53:41.239Z,62.00
2017-08-25T06:56:08.795Z,62.40
2017-08-25T06:58:36.298Z,62.30
2017-08-25T07:01:03.803Z,62.40
2017-08-25T07:03:32.090Z,62.60
2017-08-25T07:05:59.580Z,62.60
2017-08-25T07:08:27.106Z,63.20
2017-08-25T07:10:55.386Z,63.00
2017-08-25T07:13:22.906Z,63.00
2017-08-25T07:15:50.434Z,61.40
2017-08-25T07:18:17.951Z,61.90
2017-08-25T07:20:46.218Z,59.90
2017-08-25T07:23:13.730Z,59.80
2017-08-25T07:25:41.231Z,59.80
2017-08-25T07:28:09.174Z,59.60
2017-08-25T07:30:36.681Z,59.40
2017-08-25T07:33:04.194Z,58.90
2017-08-25T07:35:31.698Z,59.00
2017-08-25T07:37:59.206Z,58.70
2017-08-25T07:40:26.720Z,58.70
2017-08-25T07:42:54.250Z,58.30
2017-08-25T07:45:21.779Z,58.40
2017-08-25T07:47:49.290Z,58.30
2017-08-25T07:50:16.810Z,58.30
2017-08-25T07:52:44.338Z,58.00
2017-08-25T07:55:11.846Z,57.90
2017-08-25T07:57:39.355Z,58.30
2017-08-25T08:00:06.883Z,57.80
2017-08-25T08:02:34.379Z,57.70
2017-08-25T08:05:01.906Z,57.40
2017-08-25T08:07:29.414Z,57.10
2017-08-25T08:09:56.938Z,57.00
2017-08-25T08:12:24.434Z,57.20
2017-08-25T08:14:51.953Z,57.10
2017-08-25T08:17:20.222Z,56.40
2017-08-25T08:19:48.498Z,55.90
2017-08-25T08:22:16.002Z,55.80
2017-08-25T08:24:43.510Z,55.60
2017-08-25T08:27:11.017Z,55.60
2017-08-25T08:29:38.551Z,54.50
2017-08-25T08:32:06.046Z,54.20
2017-08-25T08:34:33.543Z,54.40
2017-08-25T08:37:01.838Z,53.90
2017-08-25T08:39:29.330Z,53.80
2017-08-25T08:41:56.936Z,53.90
2017-08-25T08:44:24.447Z,54.20
2017-08-25T08:46:51.974Z,52.50
2017-08-25T08:49:19.471Z,53.00
2017-08-25T08:51:46.999Z,51.80
2017-08-25T08:54:14.498Z,51.30
2017-08-25T08:56:42.042Z,51.50
2017-08-25T08:59:09.542Z,51.10
2017-08-25T09:01:37.058Z,50.70
2017-08-25T09:04:04.558Z,48.50
2017-08-25T09:06:36.042Z,48.20
2017-08-25T09:09:03.550Z,48.40
2017-08-25T09:11:31.062Z,48.60
2017-08-25T09:13:58.558Z,48.50
2017-08-25T09:16:26.075Z,48.50
2017-08-25T09:18:53.574Z,48.40
2017-08-25T09:21:21.115Z,46.50
2017-08-25T09:23:48.623Z,47.20
2017-08-25T09:26:16.135Z,47.60
2017-08-25T09:28:43.702Z,45.90
2017-08-25T09:31:11.201Z,47.10
2017-08-25T09:33:38.710Z,47.10
2017-08-25T09:36:06.213Z,47.10
2017-08-25T09:38:33.750Z,47.10
2017-08-25T09:41:01.257Z,46.50
2017-08-25T09:43:28.818Z,45.00
2017-08-25T09:45:56.306Z,44.70
2017-08-25T09:48:23.822Z,44.50
2017-08-25T09:50:51.322Z,43.80
2017-08-25T09:53:18.839Z,43.40
2017-08-25T09:55:46.346Z,42.70
2017-08-25T09:58:13.878Z,42.60
2017-08-25T10:00:41.380Z,43.70
2017-08-25T10:03:08.894Z,44.30
2017-08-25T10:05:36.390Z,43.80
2017-08-25T10:08:04.766Z,44.40
2017-08-25T10:10:32.298Z,42.90
2017-08-25T10:12:59.795Z,43.50
2017-08-25T10:15:27.306Z,43.10
2017-08-25T10:17:54.805Z,44.30
2017-08-25T10:20:22.342Z,44.80
2017-08-25T10:22:49.838Z,44.60
2017-08-25T10:25:17.355Z,45.10
2017-08-25T10:27:44.854Z,45.20
2017-08-25T10:30:12.374Z,43.70
2017-08-25T10:32:39.907Z,44.30
2017-08-25T10:35:19.325Z,44.20
2017-08-25T10:37:58.654Z,43.80
2017-08-25T10:40:38.114Z,44.20
2017-08-25T10:43:17.504Z,44.90
2017-08-25T10:45:45.030Z,44.60
2017-08-25T10:48:12.526Z,43.50
2017-08-25T10:50:40.108Z,44.00
2017-08-25T10:55:30.739Z,43.90
2017-08-25T10:57:58.233Z,44.40
2017-08-25T11:00:25.791Z,44.30
2017-08-25T11:02:53.297Z,44.30
2017-08-25T11:05:20.792Z,44.10
2017-08-25T11:07:50.290Z,44.50
2017-08-25T11:10:17.794Z,44.50
2017-08-25T11:12:45.348Z,44.20
2017-08-25T11:15:13.012Z,43.70
2017-08-25T11:17:40.530Z,44.20
2017-08-25T11:20:08.032Z,44.60
2017-08-25T11:22:35.538Z,44.80
2017-08-25T11:25:03.048Z,43.50
2017-08-25T11:27:30.566Z,43.80
2017-08-25T11:29:58.066Z,44.30
2017-08-25T11:32:25.578Z,44.70
2017-08-25T11:34:53.188Z,44.30
2017-08-25T11:37:20.934Z,44.50
2017-08-25T11:39:48.453Z,44.50
2017-08-25T11:42:15.970Z,44.10
2017-08-25T11:44:44.277Z,44.50
2017-08-25T11:47:11.800Z,44.80
2017-08-25T11:49:39.324Z,44.70
2017-08-25T11:52:06.886Z,42.50
2017-08-25T11:54:35.143Z,42.70
2017-08-25T11:57:02.646Z,43.30
2017-08-25T11:59:30.220Z,43.20
2017-08-25T12:01:57.758Z,42.70
2017-08-25T12:04:25.271Z,43.40
2017-08-25T12:06:52.792Z,43.70
2017-08-25T12:09:20.343Z,43.30
2017-08-25T12:11:47.877Z,43.80
2017-08-25T12:14:15.393Z,43.80
2017-08-25T12:16:42.899Z,44.00
2017-08-25T12:19:11.182Z,43.40
2017-08-25T12:21:38.710Z,43.40
2017-08-25T12:24:07.063Z,43.70
2017-08-25T12:26:34.567Z,43.60
2017-08-25T12:29:02.084Z,42.70
2017-08-25T12:31:29.624Z,42.80
2017-08-25T12:33:57.138Z,42.90
2017-08-25T12:36:24.747Z,42.50
2017-08-25T12:38:52.281Z,42.10
2017-08-25T12:41:19.842Z,42.00
2017-08-25T12:43:47.346Z,40.80
2017-08-25T12:46:14.866Z,41.20
2017-08-25T12:48:42.358Z,41.30
2017-08-25T12:51:09.874Z,41.70
2017-08-25T12:53:37.374Z,41.00
2017-08-25T12:56:04.885Z,41.70
2017-08-25T12:58:32.386Z,41.00
2017-08-25T13:00:59.906Z,41.10
2017-08-25T13:03:27.405Z,40.50
2017-08-25T13:05:54.914Z,40.70
2017-08-25T13:08:22.423Z,41.10
2017-08-25T13:10:49.945Z,41.70
2017-08-25T13:13:17.534Z,41.80
2017-08-25T13:15:45.049Z,41.10
2017-08-25T13:18:12.558Z,41.50
2017-08-25T13:20:40.075Z,41.90
2017-08-25T13:23:07.586Z,42.00
2017-08-25T13:25:35.117Z,41.90
2017-08-25T13:28:02.625Z,42.00
2017-08-25T13:30:30.126Z,40.80
2017-08-25T13:32:57.660Z,40.20
2017-08-25T13:35:25.209Z,40.10
2017-08-25T13:37:52.752Z,40.30
2017-08-25T13:40:20.266Z,40.40
2017-08-25T13:42:47.783Z,40.60
2017-08-25T13:45:15.277Z,40.70
2017-08-25T13:47:42.803Z,40.70
2017-08-25T13:50:10.314Z,40.60
2017-08-25T13:52:37.845Z,40.60
2017-08-25T13:55:05.346Z,40.70
2017-08-25T13:57:32.882Z,40.60
2017-08-25T14:00:00.494Z,40.40
2017-08-25T14:02:28.019Z,41.00
2017-08-25T14:04:55.526Z,40.60
2017-08-25T14:07:23.072Z,40.70
2017-08-25T14:09:50.587Z,40.60
2017-08-25T14:12:18.118Z,41.00
2017-08-25T14:14:45.622Z,41.00
2017-08-25T14:17:13.170Z,40.90
2017-08-25T14:19:40.674Z,41.10
2017-08-25T14:22:08.193Z,41.20
2017-08-25T14:24:35.717Z,41.40
2017-08-25T14:27:03.242Z,41.40
2017-08-25T14:29:30.770Z,41.20
2017-08-25T14:31:58.280Z,40.70
2017-08-25T14:34:25.820Z,39.50
2017-08-25T14:36:53.344Z,39.20
2017-08-25T14:39:20.906Z,38.80
2017-08-25T14:41:48.418Z,39.00
2017-08-25T14:44:15.945Z,38.90
2017-08-25T14:46:43.456Z,39.20
2017-08-25T14:49:10.993Z,39.30
2017-08-25T14:51:38.500Z,39.30
2017-08-25T14:54:06.098Z,39.60
2017-08-25T14:56:33.615Z,40.00
2017-08-25T14:59:01.135Z,40.10
2017-08-25T15:01:28.659Z,39.80
2017-08-25T15:03:56.244Z,40.00
2017-08-25T15:06:23.752Z,39.80
2017-08-25T15:08:51.302Z,39.80
2017-08-25T15:11:18.902Z,40.00
2017-08-25T15:13:46.401Z,40.00
2017-08-25T15:16:13.922Z,39.80
2017-08-25T15:18:41.437Z,40.00
2017-08-25T15:21:08.962Z,40.20
2017-08-25T15:23:36.466Z,40.40
2017-08-25T15:26:03.983Z,40.60
2017-08-25T15:28:31.517Z,40.40
2017-08-25T15:30:59.071Z,39.40
2017-08-25T15:33:26.591Z,39.60
2017-08-25T15:35:54.121Z,39.00
2017-08-25T15:38:21.630Z,38.80
2017-08-25T15:40:49.148Z,38.50
2017-08-25T15:43:17.431Z,37.70
2017-08-25T15:45:44.971Z,37.60
2017-08-25T15:48:12.474Z,38.30
2017-08-25T15:50:40.004Z,38.40
2017-08-25T15:53:08.274Z,39.20
2017-08-25T15:55:35.802Z,39.10
2017-08-25T15:58:03.297Z,39.20
2017-08-25T16:00:31.590Z,40.10
2017-08-25T16:02:59.105Z,39.70
2017-08-25T16:05:26.650Z,39.70
2017-08-25T16:07:54.176Z,38.80
2017-08-25T16:10:21.726Z,39.40
2017-08-25T16:12:49.240Z,39.70
2017-08-25T16:15:16.743Z,40.10
2017-08-25T16:17:45.056Z,40.50
2017-08-25T16:20:12.558Z,40.50
2017-08-25T16:22:40.106Z,40.50
2017-08-25T16:25:08.378Z,40.80
2017-08-25T16:27:35.906Z,40.80
2017-08-25T16:30:03.414Z,40.80
2017-08-25T16:32:30.934Z,40.00
2017-08-25T16:34:58.438Z,40.20
2017-08-25T16:37:25.954Z,40.20
2017-08-25T16:39:53.459Z,40.70
2017-08-25T16:42:20.981Z,40.80
2017-08-25T16:44:49.903Z,40.90
2017-08-25T16:47:17.425Z,40.60
2017-08-25T16:49:44.934Z,40.00
2017-08-25T16:52:12.485Z,40.10
2017-08-25T16:54:39.995Z,40.50
2017-08-25T16:57:07.522Z,40.40
2017-08-25T16:59:35.025Z,40.50
2017-08-25T17:02:02.551Z,41.50
2017-08-25T17:04:30.062Z,41.80
2017-08-25T17:06:57.591Z,41.90
2017-08-25T17:09:25.110Z,42.00
2017-08-25T17:11:52.642Z,42.30
2017-08-25T17:14:20.146Z,42.60
2017-08-25T17:16:47.660Z,42.90
2017-08-25T17:19:15.179Z,43.10
2017-08-25T17:21:42.678Z,43.50
2017-08-25T17:24:10.202Z,43.80
2017-08-25T17:26:37.698Z,44.00
2017-08-25T17:29:05.223Z,44.20
2017-08-25T17:31:32.734Z,44.40
2017-08-25T17:34:00.256Z,44.30
2017-08-25T17:36:27.754Z,44.60
2017-08-25T17:38:55.271Z,44.70
2017-08-25T17:41:22.785Z,45.00
2017-08-25T17:43:50.303Z,45.20
2017-08-25T17:46:17.797Z,45.60
2017-08-25T17:48:45.315Z,46.20
2017-08-25T17:51:12.847Z,46.90
2017-08-25T17:53:40.353Z,46.90
2017-08-25T17:56:07.864Z,47.10
2017-08-25T17:58:35.401Z,47.40
2017-08-25T18:01:02.895Z,47.80
2017-08-25T18:03:30.414Z,47.90
2017-08-25T18:05:57.915Z,48.20
2017-08-25T18:08:25.443Z,48.50
2017-08-25T18:10:52.944Z,48.50
2017-08-25T18:13:20.502Z,48.80
2017-08-25T18:15:48.007Z,49.00
2017-08-25T18:18:15.503Z,49.30
2017-08-25T18:20:43.016Z,49.70
2017-08-25T18:23:10.536Z,50.00
2017-08-25T18:25:38.058Z,50.20
2017-08-25T18:28:05.605Z,50.20
2017-08-25T18:30:33.114Z,50.40
2017-08-25T18:33:00.610Z,50.60
2017-08-25T18:35:28.126Z,50.80
2017-08-25T18:37:55.622Z,51.60
2017-08-25T18:40:23.138Z,50.90
2017-08-25T18:42:50.670Z,51.10
2017-08-25T18:45:18.194Z,51.10
2017-08-25T18:47:45.695Z,51.00
2017-08-25T18:50:13.222Z,51.10
2017-08-25T18:52:40.726Z,51.30
2017-08-25T18:55:08.246Z,51.50
2017-08-25T18:57:36.536Z,51.70
2017-08-25T19:00:04.074Z,51.60
2017-08-25T19:02:31.583Z,51.70
2017-08-25T19:04:59.091Z,51.90
2017-08-25T19:07:26.593Z,52.10
2017-08-25T19:09:54.140Z,52.10
2017-08-25T19:12:21.647Z,52.00
2017-08-25T19:14:49.187Z,52.00
2017-08-25T19:17:16.685Z,52.10
2017-08-25T19:19:44.185Z,52.10
2017-08-25T19:22:11.706Z,52.30
2017-08-25T19:24:39.215Z,52.30
2017-08-25T19:27:06.742Z,52.50
2017-08-25T19:29:34.242Z,52.50
2017-08-25T19:32:01.782Z,52.70
2017-08-25T19:34:29.279Z,52.80
2017-08-25T19:36:56.802Z,52.70
2017-08-25T19:39:24.309Z,52.80
2017-08-25T19:41:51.843Z,53.00
2017-08-25T19:44:19.392Z,53.10
2017-08-25T19:46:46.906Z,53.20
2017-08-25T19:49:14.414Z,53.30
2017-08-25T19:51:41.927Z,53.20
2017-08-25T19:54:10.206Z,53.40
2017-08-25T19:56:37.726Z,53.30
2017-08-25T19:59:05.311Z,53.20
2017-08-25T20:01:32.835Z,53.40
2017-08-25T20:04:00.331Z,53.40
2017-08-25T20:06:27.855Z,53.30
2017-08-25T20:08:55.357Z,53.40
2017-08-25T20:11:22.886Z,53.60
2017-08-25T20:13:50.385Z,53.80
2017-08-25T20:16:17.929Z,53.80
2017-08-25T20:18:45.427Z,53.90
2017-08-25T20:21:12.932Z,54.20
2017-08-25T20:23:40.455Z,54.10
2017-08-25T20:26:07.987Z,54.30
2017-08-25T20:28:35.505Z,54.40
2017-08-25T20:31:03.016Z,54.70
2017-08-25T20:33:30.539Z,54.80
2017-08-25T20:35:58.034Z,54.80
2017-08-25T20:38:25.555Z,54.80
2017-08-25T20:40:53.059Z,54.70
2017-08-25T20:43:20.583Z,54.80
2017-08-25T20:45:48.086Z,54.90
2017-08-25T20:48:15.601Z,54.80
2017-08-25T20:50:43.106Z,55.30
2017-08-25T20:53:10.626Z,55.10
2017-08-25T20:55:38.128Z,55.10
2017-08-25T20:58:05.654Z,55.20
2017-08-25T21:00:33.166Z,55.30
2017-08-25T21:03:00.679Z,55.40
2017-08-25T21:05:28.182Z,55.50
2017-08-25T21:07:55.699Z,55.70
2017-08-25T21:10:23.194Z,55.60
2017-08-25T21:12:50.720Z,55.70
2017-08-25T21:15:18.214Z,55.70
2017-08-25T21:17:45.747Z,55.80
2017-08-25T21:20:13.245Z,56.10
2017-08-25T21:22:40.740Z,55.90
2017-08-25T21:25:08.273Z,56.10
2017-08-25T21:27:35.783Z,56.20
2017-08-25T21:30:03.311Z,56.60
2017-08-25T21:32:30.821Z,56.20
2017-08-25T21:34:58.342Z,56.40
2017-08-25T21:37:25.860Z,56.50
2017-08-25T21:39:53.394Z,56.60
2017-08-25T21:42:20.902Z,56.70
2017-08-25T21:44:48.419Z,56.90
2017-08-25T21:47:15.914Z,57.10
2017-08-25T21:49:43.435Z,57.10
2017-08-25T21:52:10.934Z,56.80
2017-08-25T21:54:38.462Z,57.20
2017-08-25T21:57:05.967Z,57.90
2017-08-25T21:59:33.473Z,57.40
2017-08-25T22:02:00.990Z,57.40
2017-08-25T22:04:28.510Z,57.40
2017-08-25T22:06:56.026Z,57.50
2017-08-25T22:09:23.554Z,57.50
2017-08-25T22:11:51.055Z,57.50
2017-08-25T22:14:18.581Z,57.60
2017-08-25T22:16:46.078Z,57.70
2017-08-25T22:19:13.623Z,57.80
2017-08-25T22:21:41.126Z,57.90
2017-08-25T22:24:08.638Z,57.90
2017-08-25T22:26:36.166Z,58.10
2017-08-25T22:29:03.677Z,58.20
2017-08-25T22:31:31.199Z,58.20
2017-08-25T22:33:58.706Z,58.30
2017-08-25T22:36:26.243Z,58.30
2017-08-25T22:38:53.751Z,58.50
2017-08-25T22:41:21.269Z,58.30
2017-08-25T22:43:48.778Z,58.40
2017-08-25T22:46:16.307Z,58.50
2017-08-25T22:48:43.837Z,58.50
2017-08-25T22:51:11.359Z,58.50
2017-08-25T22:53:38.867Z,58.50
2017-08-25T22:56:06.382Z,58.60
2017-08-25T22:58:33.902Z,58.70
2017-08-25T23:01:01.430Z,58.80
2017-08-25T23:03:28.934Z,58.80
2017-08-25T23:05:56.458Z,58.90
2017-08-25T23:08:23.962Z,58.90
2017-08-25T23:10:51.494Z,59.00
2017-08-25T23:13:18.999Z,59.10
2017-08-25T23:15:46.505Z,59.30
2017-08-25T23:18:14.027Z,59.20
2017-08-25T23:20:41.534Z,59.30
2017-08-25T23:23:09.055Z,59.40
2017-08-25T23:25:36.562Z,59.40
2017-08-25T23:28:04.086Z,59.50
2017-08-25T23:30:31.585Z,60.10
2017-08-25T23:32:59.097Z,59.90
2017-08-25T23:35:26.607Z,59.70
2017-08-25T23:37:54.126Z,59.70
2017-08-25T23:40:21.619Z,60.30
2017-08-25T23:42:49.134Z,61.20
2017-08-25T23:45:16.639Z,61.60
2017-08-25T23:47:44.174Z,62.20
2017-08-25T23:50:11.772Z,61.40
2017-08-25T23:52:39.314Z,61.20
2017-08-25T23:55:06.887Z,60.90
2017-08-25T23:57:34.402Z,60.70
